createdAt,value
2024-04-30T00:00:48.807Z,99.90
2024-04-30T00:03:15.816Z,99.90
2024-04-30T00:05:45.245Z,99.90
2024-04-30T00:08:12.358Z,99.90
2024-04-30T00:10:39.399Z,99.90
2024-04-30T00:13:06.468Z,99.90
2024-04-30T00:15:33.531Z,99.90
2024-04-30T00:18:00.648Z,99.90
2024-04-30T00:20:27.823Z,99.90
2024-04-30T00:22:54.861Z,99.90
2024-04-30T00:25:21.888Z,99.90
2024-04-30T00:27:50.316Z,99.90
2024-04-30T00:30:17.540Z,99.90
2024-04-30T00:32:44.628Z,99.90
2024-04-30T00:35:11.856Z,99.90
2024-04-30T00:37:39.054Z,99.90
2024-04-30T00:40:06.777Z,99.90
2024-04-30T00:42:34.994Z,99.90
2024-04-30T00:45:02.109Z,99.90
2024-04-30T00:47:30.667Z,99.90
2024-04-30T00:49:57.845Z,99.90
2024-04-30T00:52:25.801Z,99.90
2024-04-30T00:54:53.491Z,99.90
2024-04-30T00:57:20.779Z,99.90
2024-04-30T00:59:48.729Z,99.90
2024-04-30T01:02:16.221Z,99.90
2024-04-30T01:04:43.324Z,99.90
2024-04-30T01:07:10.520Z,99.90
2024-04-30T01:09:37.530Z,99.90
2024-04-30T01:12:04.895Z,99.90
2024-04-30T01:14:32.024Z,99.90
2024-04-30T01:16:59.031Z,99.90
2024-04-30T01:19:26.107Z,99.90
2024-04-30T01:21:53.150Z,99.90
2024-04-30T01:24:20.156Z,99.90
2024-04-30T01:26:47.107Z,99.90
2024-04-30T01:29:14.175Z,99.90
2024-04-30T01:31:41.139Z,99.90
2024-04-30T01:34:08.221Z,99.90
2024-04-30T01:36:35.284Z,99.90
2024-04-30T01:39:02.351Z,99.90
2024-04-30T01:41:29.466Z,99.90
2024-04-30T01:43:56.555Z,99.90
2024-04-30T01:46:23.522Z,99.90
2024-04-30T01:48:50.701Z,99.90
2024-04-30T01:51:17.799Z,99.90
2024-04-30T01:53:45.209Z,99.90
2024-04-30T01:56:12.297Z,99.90
2024-04-30T01:58:39.630Z,99.90
2024-04-30T02:01:07.018Z,99.90
2024-04-30T02:03:34.091Z,99.90
2024-04-30T02:06:01.178Z,99.90
2024-04-30T02:08:28.196Z,99.90
2024-04-30T02:10:55.214Z,99.90
2024-04-30T02:13:22.293Z,99.90
2024-04-30T02:15:49.259Z,99.90
2024-04-30T02:18:16.452Z,99.90
2024-04-30T02:20:43.529Z,99.90
2024-04-30T02:23:10.518Z,99.90
2024-04-30T02:25:37.586Z,99.90
2024-04-30T02:28:05.095Z,99.90
2024-04-30T02:30:50.618Z,99.90
2024-04-30T02:33:36.416Z,99.90
2024-04-30T02:36:07.058Z,99.90
2024-04-30T02:38:34.139Z,99.90
2024-04-30T02:41:01.209Z,99.90
2024-04-30T02:43:28.233Z,99.90
2024-04-30T02:45:55.318Z,99.90
2024-04-30T02:48:22.321Z,99.90
2024-04-30T02:50:49.436Z,99.90
2024-04-30T02:53:16.485Z,99.90
2024-04-30T02:55:43.559Z,99.90
2024-04-30T02:58:10.575Z,99.90
2024-04-30T03:00:37.747Z,99.90
2024-04-30T03:03:05.080Z,99.90
2024-04-30T03:05:32.051Z,99.90
2024-04-30T03:07:59.063Z,99.90
2024-04-30T03:10:26.286Z,99.90
2024-04-30T03:12:53.573Z,99.90
2024-04-30T03:15:20.573Z,99.90
2024-04-30T03:17:48.278Z,99.90
2024-04-30T03:20:16.085Z,99.90
2024-04-30T03:22:46.157Z,99.90
2024-04-30T03:25:13.513Z,99.90
2024-04-30T03:27:43.242Z,99.90
2024-04-30T03:30:10.781Z,99.90
2024-04-30T03:32:38.068Z,99.90
2024-04-30T03:35:05.676Z,99.90
2024-04-30T03:37:32.821Z,99.90
2024-04-30T03:40:00.056Z,99.90
2024-04-30T03:42:27.223Z,99.90
2024-04-30T03:44:54.775Z,99.90
2024-04-30T03:47:22.622Z,99.90
2024-04-30T03:49:49.637Z,99.90
2024-04-30T03:52:16.712Z,99.90
2024-04-30T03:54:43.775Z,99.90
2024-04-30T03:57:11.019Z,99.90
2024-04-30T03:59:38.039Z,99.90
2024-04-30T04:02:05.048Z,99.90
2024-04-30T04:04:32.153Z,99.90
2024-04-30T04:06:59.291Z,99.90
2024-04-30T04:09:26.561Z,99.90
2024-04-30T04:12:12.175Z,99.90
2024-04-30T04:14:48.881Z,99.90
2024-04-30T04:17:20.157Z,99.90
2024-04-30T04:19:50.482Z,99.90
2024-04-30T04:22:17.554Z,99.90
2024-04-30T04:24:44.662Z,99.90
2024-04-30T04:27:11.619Z,99.90
2024-04-30T04:29:38.641Z,99.90
2024-04-30T04:32:07.529Z,99.90
2024-04-30T04:34:34.683Z,99.90
2024-04-30T04:37:01.862Z,99.90
2024-04-30T04:39:28.878Z,99.90
2024-04-30T04:41:55.898Z,99.90
2024-04-30T04:44:22.968Z,99.90
2024-04-30T04:46:49.911Z,99.90
2024-04-30T04:49:16.939Z,99.90
2024-04-30T04:51:44.019Z,99.90
2024-04-30T04:54:10.989Z,99.90
2024-04-30T04:56:38.059Z,99.90
2024-04-30T04:59:05.279Z,99.60
2024-04-30T05:01:32.300Z,98.20
2024-04-30T05:03:59.298Z,97.30
2024-04-30T05:06:26.349Z,96.90
2024-04-30T05:08:53.309Z,96.50
2024-04-30T05:11:20.380Z,96.00
2024-04-30T05:13:47.413Z,95.70
2024-04-30T05:16:14.394Z,95.20
2024-04-30T05:18:41.374Z,94.70
2024-04-30T05:21:08.622Z,94.30
2024-04-30T05:23:35.733Z,94.10
2024-04-30T05:26:02.726Z,93.80
2024-04-30T05:28:29.781Z,93.70
2024-04-30T05:30:56.788Z,93.70
2024-04-30T05:33:23.909Z,93.40
2024-04-30T05:35:51.084Z,93.00
2024-04-30T05:38:18.111Z,92.80
2024-04-30T05:40:45.052Z,92.30
2024-04-30T05:43:12.338Z,93.20
2024-04-30T05:45:39.681Z,92.10
2024-04-30T05:48:07.246Z,91.10
2024-04-30T05:50:34.327Z,90.80
2024-04-30T05:53:02.815Z,90.60
2024-04-30T05:55:29.809Z,90.60
2024-04-30T05:57:56.858Z,90.70
2024-04-30T06:00:23.843Z,91.00
2024-04-30T06:02:50.815Z,91.80
2024-04-30T06:05:17.941Z,92.00
2024-04-30T06:07:45.115Z,92.30
2024-04-30T06:10:12.114Z,92.50
2024-04-30T06:12:39.178Z,92.30
2024-04-30T06:15:06.678Z,92.10
2024-04-30T06:17:33.681Z,92.40
2024-04-30T06:20:00.754Z,92.20
2024-04-30T06:22:27.910Z,91.50
2024-04-30T06:24:54.928Z,91.50
2024-04-30T06:27:22.194Z,91.40
2024-04-30T06:29:49.223Z,91.40
2024-04-30T06:32:16.273Z,91.00
2024-04-30T06:34:43.966Z,91.20
2024-04-30T06:37:11.138Z,92.30
2024-04-30T06:39:38.204Z,93.00
2024-04-30T06:42:05.721Z,93.80
2024-04-30T06:44:33.712Z,94.40
2024-04-30T06:47:00.681Z,94.60
2024-04-30T06:49:27.734Z,94.90
2024-04-30T06:51:54.945Z,95.20
2024-04-30T06:54:22.059Z,95.40
2024-04-30T06:56:48.986Z,95.70
2024-04-30T06:59:15.961Z,96.10
2024-04-30T07:01:43.086Z,96.80
2024-04-30T07:04:10.520Z,97.30
2024-04-30T07:06:37.848Z,97.60
2024-04-30T07:09:05.024Z,97.50
2024-04-30T07:11:32.033Z,97.60
2024-04-30T07:13:59.216Z,98.10
2024-04-30T07:16:26.240Z,97.70
2024-04-30T07:18:53.302Z,97.70
2024-04-30T07:21:20.604Z,98.10
2024-04-30T07:23:47.600Z,98.40
2024-04-30T07:26:16.695Z,98.20
2024-04-30T07:28:45.343Z,98.20
2024-04-30T07:31:12.386Z,98.70
2024-04-30T07:33:42.067Z,98.80
2024-04-30T07:36:09.136Z,99.00
2024-04-30T07:38:37.669Z,98.20
2024-04-30T07:41:05.128Z,98.50
2024-04-30T07:43:32.402Z,97.90
2024-04-30T07:45:59.505Z,98.10
2024-04-30T07:48:27.205Z,97.90
2024-04-30T07:50:56.702Z,97.10
2024-04-30T07:53:23.659Z,96.90
2024-04-30T07:55:50.666Z,96.80
2024-04-30T07:58:17.733Z,96.20
2024-04-30T08:00:44.803Z,94.70
2024-04-30T08:03:11.987Z,94.50
2024-04-30T08:05:43.047Z,94.50
2024-04-30T08:08:13.896Z,94.60
2024-04-30T08:10:41.024Z,94.50
2024-04-30T08:13:08.431Z,94.60
2024-04-30T08:15:35.533Z,94.30
2024-04-30T08:18:02.746Z,94.60
2024-04-30T08:20:29.871Z,94.60
2024-04-30T08:22:56.950Z,94.30
2024-04-30T08:25:24.013Z,94.30
2024-04-30T08:27:51.037Z,94.80
2024-04-30T08:30:18.035Z,95.20
2024-04-30T08:32:45.631Z,95.80
2024-04-30T08:35:12.710Z,95.80
2024-04-30T08:37:51.442Z,96.10
2024-04-30T08:40:22.176Z,96.50
2024-04-30T08:42:51.385Z,96.90
2024-04-30T08:45:22.771Z,97.70
2024-04-30T08:47:51.614Z,98.20
2024-04-30T08:50:21.762Z,98.40
2024-04-30T08:52:49.713Z,98.10
2024-04-30T08:55:20.831Z,98.10
2024-04-30T08:57:48.109Z,98.20
2024-04-30T09:00:16.065Z,98.40
2024-04-30T09:02:43.808Z,98.50
2024-04-30T09:05:12.034Z,98.60
2024-04-30T09:07:39.002Z,98.40
2024-04-30T09:10:06.271Z,98.40
2024-04-30T09:12:33.378Z,98.10
2024-04-30T09:15:00.432Z,98.10
2024-04-30T09:17:29.037Z,97.70
2024-04-30T09:20:06.684Z,97.70
2024-04-30T09:22:54.490Z,97.80
2024-04-30T09:25:35.600Z,97.40
2024-04-30T09:28:12.903Z,98.20
2024-04-30T09:30:40.020Z,98.60
2024-04-30T09:33:10.960Z,98.40
2024-04-30T09:35:38.446Z,98.80
2024-04-30T09:38:11.549Z,98.50
2024-04-30T09:40:38.850Z,98.50
2024-04-30T09:43:06.900Z,98.90
2024-04-30T09:45:35.235Z,99.50
2024-04-30T09:48:09.304Z,99.80
2024-04-30T09:50:38.739Z,99.90
2024-04-30T09:53:07.601Z,99.90
2024-04-30T09:55:37.814Z,99.90
2024-04-30T09:58:07.008Z,99.90
2024-04-30T10:00:34.085Z,99.90
2024-04-30T10:03:07.245Z,99.70
2024-04-30T10:05:38.842Z,98.30
2024-04-30T10:08:06.584Z,97.60
2024-04-30T10:10:33.831Z,97.50
2024-04-30T10:13:12.302Z,97.20
2024-04-30T10:15:40.223Z,96.80
2024-04-30T10:18:07.709Z,96.20
2024-04-30T10:20:34.867Z,96.00
2024-04-30T10:23:02.930Z,95.70
2024-04-30T10:25:33.686Z,95.60
2024-04-30T10:28:09.023Z,95.00
2024-04-30T10:30:37.310Z,94.40
2024-04-30T10:33:04.649Z,94.00
2024-04-30T10:35:44.518Z,93.70
2024-04-30T10:38:11.642Z,93.70
2024-04-30T10:40:38.759Z,94.20
2024-04-30T10:43:06.061Z,93.90
2024-04-30T10:45:33.279Z,94.30
2024-04-30T10:48:00.600Z,94.10
2024-04-30T10:50:27.941Z,93.90
2024-04-30T10:52:56.222Z,93.70
2024-04-30T10:55:23.367Z,92.30
2024-04-30T10:57:50.476Z,92.30
2024-04-30T11:00:17.452Z,91.90
2024-04-30T11:02:48.739Z,91.70
2024-04-30T11:05:19.688Z,92.50
2024-04-30T11:07:55.702Z,91.50
2024-04-30T11:10:29.855Z,91.30
2024-04-30T11:13:01.285Z,90.50
2024-04-30T11:15:28.302Z,90.80
2024-04-30T11:17:55.480Z,90.70
2024-04-30T11:20:23.148Z,90.40
2024-04-30T11:22:50.230Z,90.10
2024-04-30T11:25:17.554Z,89.60
2024-04-30T11:27:44.596Z,90.00
2024-04-30T11:30:11.838Z,90.50
2024-04-30T11:32:39.026Z,88.40
2024-04-30T11:35:06.066Z,89.10
2024-04-30T11:37:34.902Z,88.70
2024-04-30T11:40:02.057Z,90.10
2024-04-30T11:42:34.482Z,90.40
2024-04-30T11:45:07.280Z,90.10
2024-04-30T11:47:34.324Z,89.20
2024-04-30T11:50:01.497Z,86.10
2024-04-30T11:52:28.548Z,85.70
2024-04-30T11:54:55.544Z,84.50
2024-04-30T11:57:22.528Z,83.50
2024-04-30T11:59:54.336Z,82.40
2024-04-30T12:02:21.661Z,82.90
2024-04-30T12:04:48.747Z,81.20
2024-04-30T12:07:15.847Z,81.30
2024-04-30T12:09:42.946Z,82.50
2024-04-30T12:12:09.960Z,82.40
2024-04-30T12:14:36.917Z,83.20
2024-04-30T12:17:04.270Z,84.40
2024-04-30T12:19:31.448Z,84.20
2024-04-30T12:21:59.316Z,84.80
2024-04-30T12:24:26.425Z,86.70
2024-04-30T12:26:53.408Z,86.00
2024-04-30T12:29:22.542Z,86.70
2024-04-30T12:31:49.688Z,89.50
2024-04-30T12:34:16.693Z,88.40
2024-04-30T12:36:44.002Z,88.40
2024-04-30T12:39:11.073Z,88.20
2024-04-30T12:41:41.335Z,89.30
2024-04-30T12:44:10.549Z,89.00
2024-04-30T12:46:37.798Z,90.00
2024-04-30T12:49:05.196Z,89.40
2024-04-30T12:51:32.442Z,90.00
2024-04-30T12:53:59.704Z,90.10
2024-04-30T12:56:27.008Z,88.50
2024-04-30T12:58:54.016Z,88.20
2024-04-30T13:01:23.377Z,89.70
2024-04-30T13:03:53.426Z,88.80
2024-04-30T13:06:20.645Z,89.90
2024-04-30T13:08:47.986Z,86.90
2024-04-30T13:11:15.549Z,85.80
2024-04-30T13:13:42.723Z,87.20
2024-04-30T13:16:10.104Z,85.70
2024-04-30T13:18:37.180Z,85.80
2024-04-30T13:21:04.413Z,86.90
2024-04-30T13:23:35.698Z,88.60
2024-04-30T13:26:02.831Z,88.40
2024-04-30T13:28:29.811Z,89.90
2024-04-30T13:30:56.758Z,90.10
2024-04-30T13:33:24.481Z,89.00
2024-04-30T13:35:51.502Z,89.20
2024-04-30T13:38:18.503Z,88.00
2024-04-30T13:40:45.852Z,86.30
2024-04-30T13:43:13.005Z,85.90
2024-04-30T13:45:40.219Z,86.40
2024-04-30T13:48:08.855Z,87.20
2024-04-30T13:50:35.967Z,87.50
2024-04-30T13:53:03.218Z,86.90
2024-04-30T13:55:30.231Z,85.90
2024-04-30T13:57:57.187Z,86.50
2024-04-30T14:00:24.188Z,86.20
2024-04-30T14:02:51.245Z,85.80
2024-04-30T14:05:18.374Z,83.80
2024-04-30T14:07:45.899Z,82.90
2024-04-30T14:10:13.213Z,83.10
2024-04-30T14:12:40.438Z,84.00
2024-04-30T14:15:07.569Z,83.80
2024-04-30T14:17:35.846Z,82.80
2024-04-30T14:20:03.836Z,81.60
2024-04-30T14:22:30.910Z,82.60
2024-04-30T14:24:58.812Z,82.80
2024-04-30T14:27:25.786Z,82.80
2024-04-30T14:29:52.888Z,81.40
2024-04-30T14:32:21.369Z,80.80
2024-04-30T14:34:48.479Z,80.80
2024-04-30T14:37:15.677Z,81.80
2024-04-30T14:39:43.814Z,81.60
2024-04-30T14:42:10.698Z,81.00
2024-04-30T14:44:37.706Z,79.90
2024-04-30T14:47:04.911Z,80.30
2024-04-30T14:49:32.065Z,79.40
2024-04-30T14:51:59.205Z,80.00
2024-04-30T14:54:26.149Z,79.80
2024-04-30T14:56:55.397Z,80.40
2024-04-30T14:59:23.229Z,82.10
2024-04-30T15:01:50.310Z,79.90
2024-04-30T15:04:17.382Z,78.30
2024-04-30T15:06:44.497Z,78.30
2024-04-30T15:09:11.591Z,78.90
2024-04-30T15:11:38.722Z,78.40
2024-04-30T15:14:05.864Z,78.80
2024-04-30T15:16:34.183Z,80.80
2024-04-30T15:19:01.695Z,80.30
2024-04-30T15:21:28.696Z,80.70
2024-04-30T15:23:55.741Z,81.10
2024-04-30T15:26:22.742Z,81.90
2024-04-30T15:28:49.716Z,81.40
2024-04-30T15:31:17.777Z,81.10
2024-04-30T15:33:45.008Z,81.60
2024-04-30T15:36:12.899Z,82.20
2024-04-30T15:38:40.263Z,81.80
2024-04-30T15:41:07.305Z,80.00
2024-04-30T15:43:36.380Z,79.80
2024-04-30T15:46:04.708Z,79.60
2024-04-30T15:48:32.144Z,79.80
2024-04-30T15:51:06.475Z,78.60
2024-04-30T15:53:33.580Z,78.20
2024-04-30T15:56:10.004Z,77.30
2024-04-30T15:58:45.400Z,77.70
2024-04-30T16:01:12.709Z,75.90
2024-04-30T16:03:39.779Z,76.30
2024-04-30T16:06:10.116Z,76.70
2024-04-30T16:08:37.571Z,78.10
2024-04-30T16:11:10.426Z,78.60
2024-04-30T16:13:39.933Z,79.50
2024-04-30T16:16:15.969Z,78.80
2024-04-30T16:18:47.357Z,78.90
2024-04-30T16:21:15.552Z,78.30
2024-04-30T16:23:43.958Z,78.30
2024-04-30T16:26:11.526Z,78.80
2024-04-30T16:28:43.534Z,79.60
2024-04-30T16:31:11.467Z,79.40
2024-04-30T16:33:38.984Z,80.10
2024-04-30T16:36:06.934Z,80.40
2024-04-30T16:38:34.037Z,80.70
2024-04-30T16:41:01.977Z,81.00
2024-04-30T16:43:28.961Z,81.40
2024-04-30T16:45:56.095Z,81.90
2024-04-30T16:48:24.956Z,82.10
2024-04-30T16:50:52.187Z,82.20
2024-04-30T16:53:19.247Z,82.90
2024-04-30T16:55:46.253Z,82.60
2024-04-30T16:58:13.308Z,82.90
2024-04-30T17:00:40.396Z,82.80
2024-04-30T17:03:07.632Z,82.30
2024-04-30T17:05:34.725Z,83.10
2024-04-30T17:08:01.717Z,82.80
2024-04-30T17:10:28.713Z,83.70
2024-04-30T17:12:55.823Z,84.50
2024-04-30T17:15:23.032Z,85.30
2024-04-30T17:17:50.124Z,86.10
2024-04-30T17:20:17.308Z,86.50
2024-04-30T17:22:44.281Z,87.10
2024-04-30T17:25:11.318Z,87.30
2024-04-30T17:27:38.411Z,88.20
2024-04-30T17:30:06.011Z,88.60
2024-04-30T17:32:33.005Z,89.30
2024-04-30T17:35:00.027Z,89.80
2024-04-30T17:37:27.258Z,89.60
2024-04-30T17:39:55.378Z,90.20
2024-04-30T17:42:22.534Z,90.40
2024-04-30T17:44:49.588Z,90.70
2024-04-30T17:47:16.704Z,91.00
2024-04-30T17:49:44.627Z,91.20
2024-04-30T17:52:12.425Z,91.40
2024-04-30T17:54:39.748Z,91.50
2024-04-30T17:57:06.866Z,91.60
2024-04-30T17:59:33.923Z,91.90
2024-04-30T18:02:00.877Z,92.40
2024-04-30T18:04:28.001Z,92.20
2024-04-30T18:06:55.231Z,92.40
2024-04-30T18:09:22.406Z,92.70
2024-04-30T18:11:52.322Z,92.80
2024-04-30T18:14:19.420Z,92.90
2024-04-30T18:16:46.510Z,93.00
2024-04-30T18:19:13.646Z,93.00
2024-04-30T18:21:44.188Z,92.90
2024-04-30T18:24:11.573Z,93.10
2024-04-30T18:26:40.154Z,93.20
2024-04-30T18:29:07.264Z,93.30
2024-04-30T18:31:34.296Z,93.40
2024-04-30T18:34:01.673Z,93.40
2024-04-30T18:36:28.774Z,93.70
2024-04-30T18:38:55.839Z,93.80
2024-04-30T18:41:28.416Z,94.00
2024-04-30T18:43:57.934Z,94.00
2024-04-30T18:46:24.958Z,94.20
2024-04-30T18:48:52.478Z,94.40
2024-04-30T18:51:20.755Z,94.40
2024-04-30T18:53:47.983Z,94.60
2024-04-30T18:56:17.729Z,94.80
2024-04-30T18:58:46.174Z,95.00
2024-04-30T19:01:14.440Z,95.00
2024-04-30T19:03:41.954Z,95.20
2024-04-30T19:06:10.867Z,95.40
2024-04-30T19:08:38.360Z,95.60
2024-04-30T19:11:06.923Z,95.80
2024-04-30T19:13:34.804Z,95.80
2024-04-30T19:16:02.764Z,95.90
2024-04-30T19:18:30.131Z,95.90
2024-04-30T19:20:57.348Z,96.10
2024-04-30T19:23:34.239Z,96.20
2024-04-30T19:26:02.172Z,96.30
2024-04-30T19:28:29.602Z,96.40
2024-04-30T19:30:56.882Z,96.50
2024-04-30T19:33:24.283Z,96.60
2024-04-30T19:35:51.377Z,96.50
2024-04-30T19:38:18.463Z,96.60
2024-04-30T19:40:46.405Z,96.40
2024-04-30T19:43:16.700Z,96.60
2024-04-30T19:45:44.225Z,96.50
2024-04-30T19:48:16.841Z,96.30
2024-04-30T19:50:46.070Z,96.40
2024-04-30T19:53:13.227Z,96.40
2024-04-30T19:55:41.206Z,96.40
2024-04-30T19:58:08.464Z,96.40
2024-04-30T20:00:36.073Z,96.40
2024-04-30T20:03:03.409Z,96.30
2024-04-30T20:05:30.624Z,96.40
2024-04-30T20:07:59.748Z,96.30
2024-04-30T20:10:26.880Z,96.30
2024-04-30T20:12:54.805Z,96.40
2024-04-30T20:15:21.969Z,96.40
2024-04-30T20:17:49.269Z,96.50
2024-04-30T20:20:16.372Z,96.40
2024-04-30T20:22:45.734Z,96.60
2024-04-30T20:25:13.661Z,96.60
2024-04-30T20:27:41.051Z,96.50
2024-04-30T20:30:11.476Z,96.60
2024-04-30T20:32:40.393Z,97.00
2024-04-30T20:35:08.341Z,96.70
2024-04-30T20:37:35.404Z,96.80
2024-04-30T20:40:02.817Z,96.90
2024-04-30T20:42:29.910Z,96.90
2024-04-30T20:44:57.106Z,97.10
2024-04-30T20:47:24.171Z,97.10
2024-04-30T20:49:51.171Z,97.20
2024-04-30T20:52:19.742Z,97.20
2024-04-30T20:54:46.856Z,97.30
2024-04-30T20:57:13.826Z,97.30
2024-04-30T20:59:40.829Z,97.40
2024-04-30T21:02:09.837Z,97.50
2024-04-30T21:04:36.973Z,97.50
2024-04-30T21:07:04.283Z,97.60
2024-04-30T21:09:31.602Z,97.70
2024-04-30T21:11:58.712Z,97.80
2024-04-30T21:14:25.684Z,97.80
2024-04-30T21:16:52.689Z,97.70
2024-04-30T21:19:20.524Z,97.70
2024-04-30T21:21:47.755Z,97.90
2024-04-30T21:24:14.785Z,98.00
2024-04-30T21:26:42.508Z,98.10
2024-04-30T21:29:09.441Z,98.10
2024-04-30T21:31:36.577Z,98.00
2024-04-30T21:34:03.754Z,98.00
2024-04-30T21:36:31.135Z,97.90
2024-04-30T21:38:58.109Z,98.00
2024-04-30T21:41:25.205Z,97.80
2024-04-30T21:43:52.374Z,97.80
2024-04-30T21:46:19.320Z,97.70
2024-04-30T21:48:46.316Z,97.80
2024-04-30T21:51:13.424Z,97.90
2024-04-30T21:53:40.522Z,97.80
2024-04-30T21:56:07.781Z,97.80
2024-04-30T21:58:34.953Z,97.80
2024-04-30T22:01:02.204Z,97.80
2024-04-30T22:03:29.500Z,97.90
2024-04-30T22:05:58.055Z,98.00
2024-04-30T22:08:25.129Z,98.00
2024-04-30T22:10:52.795Z,98.10
2024-04-30T22:13:20.171Z,98.20
2024-04-30T22:15:47.424Z,98.30
2024-04-30T22:18:14.630Z,98.40
2024-04-30T22:20:41.703Z,98.50
2024-04-30T22:23:08.744Z,98.50
2024-04-30T22:25:35.727Z,98.60
2024-04-30T22:28:02.848Z,98.70
2024-04-30T22:30:29.911Z,98.80
2024-04-30T22:32:57.168Z,98.80
2024-04-30T22:35:24.346Z,98.80
2024-04-30T22:37:51.961Z,98.80
2024-04-30T22:40:18.992Z,98.80
2024-04-30T22:42:46.227Z,98.90
2024-04-30T22:45:13.287Z,99.00
2024-04-30T22:47:40.458Z,99.10
2024-04-30T22:50:07.741Z,99.20
2024-04-30T22:52:34.708Z,99.20
2024-04-30T22:55:01.817Z,99.20
2024-04-30T22:57:28.962Z,99.20
2024-04-30T22:59:55.924Z,99.40
2024-04-30T23:02:23.328Z,99.40
2024-04-30T23:04:53.371Z,99.60
2024-04-30T23:07:20.584Z,99.80
2024-04-30T23:09:47.635Z,99.70
2024-04-30T23:12:14.680Z,99.90
2024-04-30T23:14:41.665Z,99.90
2024-04-30T23:17:08.555Z,99.90
2024-04-30T23:19:35.599Z,99.90
2024-04-30T23:22:02.847Z,99.90
2024-04-30T23:24:30.065Z,99.90
2024-04-30T23:26:57.073Z,99.90
2024-04-30T23:29:25.473Z,99.90
2024-04-30T23:31:54.196Z,99.90
2024-04-30T23:34:21.225Z,99.90
2024-04-30T23:36:48.354Z,99.90
2024-04-30T23:39:15.483Z,99.90
2024-04-30T23:41:42.428Z,99.90
2024-04-30T23:44:09.407Z,99.90
2024-04-30T23:46:36.567Z,99.90
2024-04-30T23:49:03.686Z,99.90
2024-04-30T23:51:31.236Z,99.90
2024-04-30T23:53:58.391Z,99.90
2024-04-30T23:56:25.368Z,99.90
2024-04-30T23:58:52.327Z,99.90
